createdAt,value
2019-03-30T00:00:03.606Z,23.65
2019-03-30T00:02:39.318Z,20.95
2019-03-30T00:05:13.198Z,21.45
2019-03-30T00:07:47.192Z,20.50
2019-03-30T00:10:21.008Z,22.37
2019-03-30T00:12:54.952Z,27.70
2019-03-30T00:15:28.789Z,27.73
2019-03-30T00:18:02.707Z,29.20
2019-03-30T00:20:36.527Z,29.40
2019-03-30T00:23:10.298Z,30.35
2019-03-30T00:25:44.216Z,35.52
2019-03-30T00:28:18.140Z,39.70
2019-03-30T00:30:52.062Z,41.40
2019-03-30T00:33:26.416Z,42.20
2019-03-30T00:36:01.656Z,35.95
2019-03-30T00:38:35.544Z,32.88
2019-03-30T00:41:11.191Z,29.85
2019-03-30T00:43:46.341Z,24.12
2019-03-30T00:46:21.963Z,28.27
2019-03-30T00:49:05.526Z,28.90
2019-03-30T00:51:48.943Z,30.70
2019-03-30T00:54:32.306Z,30.92
2019-03-30T00:57:16.765Z,34.70
2019-03-30T01:00:01.308Z,39.85
2019-03-30T01:02:44.660Z,41.00
2019-03-30T01:05:28.130Z,60.65
2019-03-30T01:08:11.978Z,58.00
2019-03-30T01:10:47.840Z,46.55
2019-03-30T01:13:23.537Z,45.35
2019-03-30T01:16:07.227Z,48.80
2019-03-30T01:18:42.922Z,42.40
2019-03-30T01:21:18.784Z,35.55
2019-03-30T01:24:02.761Z,29.77
2019-03-30T01:26:38.365Z,27.60
2019-03-30T01:29:14.087Z,23.27
2019-03-30T01:32:02.374Z,26.02
2019-03-30T01:34:39.583Z,28.17
2019-03-30T01:37:15.478Z,32.83
2019-03-30T01:39:50.567Z,33.50
2019-03-30T01:42:36.123Z,33.02
2019-03-30T01:45:11.788Z,32.08
2019-03-30T01:47:47.419Z,30.95
2019-03-30T01:50:32.044Z,31.00
2019-03-30T01:53:07.603Z,30.35
2019-03-30T01:55:52.640Z,32.35
2019-03-30T01:58:28.285Z,31.30
2019-03-30T02:01:03.911Z,32.58
2019-03-30T02:03:39.558Z,29.65
2019-03-30T02:06:23.487Z,36.60
2019-03-30T02:09:00.046Z,26.97
2019-03-30T02:11:35.798Z,32.13
2019-03-30T02:14:11.523Z,34.30
2019-03-30T02:16:56.330Z,33.70
2019-03-30T02:19:32.437Z,33.23
2019-03-30T02:22:07.345Z,34.08
2019-03-30T02:24:41.407Z,35.33
2019-03-30T02:27:15.334Z,31.95
2019-03-30T02:29:49.383Z,30.90
2019-03-30T02:32:23.163Z,32.67
2019-03-30T02:34:57.077Z,32.48
2019-03-30T02:37:30.992Z,28.70
2019-03-30T02:40:04.981Z,32.30
2019-03-30T02:42:38.871Z,31.87
2019-03-30T02:45:12.703Z,33.10
2019-03-30T02:47:46.660Z,39.90
2019-03-30T02:50:20.994Z,38.60
2019-03-30T02:52:55.057Z,37.13
2019-03-30T02:55:29.036Z,34.48
2019-03-30T02:58:03.001Z,42.38
2019-03-30T03:00:37.460Z,44.20
2019-03-30T03:03:11.425Z,43.42
2019-03-30T03:05:45.468Z,41.20
2019-03-30T03:08:19.465Z,38.23
2019-03-30T03:10:53.458Z,42.70
2019-03-30T03:13:27.292Z,44.93
2019-03-30T03:16:01.238Z,47.75
2019-03-30T03:18:35.179Z,42.05
2019-03-30T03:21:09.213Z,39.10
2019-03-30T03:23:43.103Z,43.55
2019-03-30T03:26:17.049Z,44.60
2019-03-30T03:28:51.016Z,39.45
2019-03-30T03:31:24.959Z,45.08
2019-03-30T03:33:58.966Z,47.30
2019-03-30T03:36:32.916Z,41.20
2019-03-30T03:39:08.130Z,33.98
2019-03-30T03:41:42.110Z,37.73
2019-03-30T03:44:16.064Z,38.10
2019-03-30T03:46:50.027Z,38.53
2019-03-30T03:49:24.035Z,55.92
2019-03-30T03:51:58.070Z,59.13
2019-03-30T03:54:32.151Z,45.38
2019-03-30T03:57:06.779Z,47.38
2019-03-30T03:59:41.701Z,41.60
2019-03-30T04:02:15.743Z,39.65
2019-03-30T04:04:52.060Z,38.48
2019-03-30T04:15:13.750Z,59.65
2019-03-30T04:17:48.010Z,61.15
2019-03-30T04:20:26.644Z,77.60
2019-03-30T04:23:02.523Z,55.35
2019-03-30T04:25:36.868Z,72.10
2019-03-30T04:28:11.421Z,85.62
2019-03-30T04:30:45.610Z,83.75
2019-03-30T04:33:21.023Z,70.72
2019-03-30T04:35:55.369Z,67.27
2019-03-30T04:38:29.373Z,61.83
2019-03-30T04:41:03.856Z,66.67
2019-03-30T04:43:38.089Z,59.18
2019-03-30T04:46:15.074Z,69.20
2019-03-30T04:49:14.324Z,75.00
2019-03-30T04:51:57.938Z,84.67
2019-03-30T04:54:33.561Z,79.10
2019-03-30T04:57:17.227Z,96.90
2019-03-30T04:59:54.791Z,102.53
2019-03-30T05:03:15.109Z,91.30
2019-03-30T05:06:18.935Z,94.40
2019-03-30T05:08:58.089Z,92.85
2019-03-30T05:11:34.461Z,96.95
2019-03-30T05:14:09.880Z,106.03
2019-03-30T05:17:04.934Z,99.62
2019-03-30T05:19:41.016Z,86.90
2019-03-30T05:22:24.523Z,98.37
2019-03-30T05:25:05.402Z,107.15
2019-03-30T05:27:40.906Z,105.75
2019-03-30T05:30:19.656Z,100.45
2019-03-30T05:33:05.428Z,116.17
2019-03-30T05:35:45.033Z,131.72
2019-03-30T05:38:23.574Z,134.32
2019-03-30T05:41:10.207Z,124.67
2019-03-30T05:43:56.139Z,114.75
2019-03-30T05:46:42.724Z,112.28
2019-03-30T05:49:22.425Z,106.17
2019-03-30T05:52:03.485Z,109.55
2019-03-30T05:54:39.546Z,149.68
2019-03-30T05:57:15.673Z,188.87
2019-03-30T05:59:56.291Z,141.75
2019-03-30T06:02:36.291Z,117.93
2019-03-30T06:05:21.448Z,125.60
2019-03-30T06:08:08.897Z,132.05
2019-03-30T06:10:46.173Z,138.30
2019-03-30T06:13:28.091Z,168.90
2019-03-30T06:16:14.281Z,135.32
2019-03-30T06:18:52.648Z,124.35
2019-03-30T06:21:29.150Z,118.60
2019-03-30T06:24:06.970Z,112.83
2019-03-30T06:26:49.445Z,110.70
2019-03-30T06:29:28.970Z,109.32
2019-03-30T06:32:17.104Z,100.05
2019-03-30T06:35:18.421Z,99.15
2019-03-30T06:38:04.479Z,99.50
2019-03-30T06:40:48.375Z,98.72
2019-03-30T06:43:24.740Z,87.20
2019-03-30T06:45:58.879Z,79.92
2019-03-30T06:48:35.948Z,75.97
2019-03-30T06:51:08.837Z,72.90
2019-03-30T06:53:42.967Z,68.12
2019-03-30T06:56:17.080Z,70.00
2019-03-30T06:58:51.292Z,66.37
2019-03-30T07:01:25.425Z,59.55
2019-03-30T07:04:00.688Z,59.42
2019-03-30T07:06:35.158Z,61.10
2019-03-30T07:09:09.326Z,57.70
2019-03-30T07:11:45.276Z,55.45
2019-03-30T07:14:19.417Z,54.27
2019-03-30T07:16:54.187Z,52.98
2019-03-30T07:19:28.256Z,54.18
2019-03-30T07:22:02.290Z,52.90
2019-03-30T07:24:37.047Z,50.35
2019-03-30T07:27:11.067Z,53.50
2019-03-30T07:29:45.140Z,49.73
2019-03-30T07:32:19.467Z,47.23
2019-03-30T07:34:53.537Z,46.63
2019-03-30T07:37:27.560Z,49.42
2019-03-30T07:40:02.550Z,48.15
2019-03-30T07:42:36.543Z,49.40
2019-03-30T07:45:10.697Z,43.35
2019-03-30T07:47:45.101Z,42.38
2019-03-30T07:50:19.249Z,43.02
2019-03-30T07:52:53.279Z,36.73
2019-03-30T07:55:27.265Z,40.95
2019-03-30T07:58:01.403Z,38.75
2019-03-30T08:00:35.578Z,37.28
2019-03-30T08:03:09.632Z,36.60
2019-03-30T08:05:45.219Z,33.45
2019-03-30T08:08:19.252Z,31.85
2019-03-30T08:10:54.443Z,32.98
2019-03-30T08:13:28.676Z,31.20
2019-03-30T08:16:02.710Z,35.40
2019-03-30T08:18:36.636Z,31.02
2019-03-30T08:21:10.551Z,31.85
2019-03-30T08:23:46.937Z,31.07
2019-03-30T08:26:20.982Z,33.15
2019-03-30T08:28:55.070Z,31.15
2019-03-30T08:31:30.793Z,34.20
2019-03-30T08:34:06.119Z,33.08
2019-03-30T08:36:40.240Z,39.50
2019-03-30T08:39:14.335Z,40.43
2019-03-30T08:41:48.522Z,46.50
2019-03-30T08:44:22.824Z,44.65
2019-03-30T08:46:56.894Z,41.68
2019-03-30T08:49:30.953Z,39.75
2019-03-30T08:52:05.324Z,34.20
2019-03-30T08:55:29.812Z,35.52
2019-03-30T08:58:44.110Z,32.42
2019-03-30T09:01:36.598Z,35.52
2019-03-30T09:04:12.140Z,40.92
2019-03-30T09:06:46.327Z,30.00
2019-03-30T09:09:20.403Z,30.32
2019-03-30T09:11:54.995Z,29.00
2019-03-30T09:14:29.185Z,31.62
2019-03-30T09:17:03.295Z,29.52
2019-03-30T09:19:37.899Z,32.23
2019-03-30T09:22:11.976Z,25.10
2019-03-30T09:24:46.144Z,30.05
2019-03-30T09:27:20.230Z,29.80
2019-03-30T09:29:54.327Z,29.77
2019-03-30T09:32:29.379Z,31.60
2019-03-30T09:35:07.553Z,30.65
2019-03-30T09:37:41.690Z,31.35
2019-03-30T09:40:15.918Z,26.12
2019-03-30T09:42:49.928Z,27.52
2019-03-30T09:45:25.110Z,29.87
2019-03-30T09:47:59.324Z,30.30
2019-03-30T09:50:32.996Z,28.95
2019-03-30T09:53:06.740Z,29.32
2019-03-30T09:55:40.365Z,32.00
2019-03-30T09:58:13.982Z,34.15
2019-03-30T10:00:52.330Z,29.95
2019-03-30T10:03:25.956Z,25.90
2019-03-30T10:06:01.482Z,29.57
2019-03-30T10:08:35.115Z,28.70
2019-03-30T10:11:08.750Z,32.50
2019-03-30T10:13:42.453Z,32.85
2019-03-30T10:16:16.103Z,32.48
2019-03-30T10:18:49.734Z,31.12
2019-03-30T10:21:23.323Z,29.80
2019-03-30T10:23:56.928Z,29.05
2019-03-30T10:26:30.719Z,36.08
2019-03-30T10:29:04.279Z,37.40
2019-03-30T10:31:37.902Z,30.02
2019-03-30T10:34:12.428Z,29.23
2019-03-30T10:36:46.052Z,28.65
2019-03-30T10:39:19.706Z,29.67
2019-03-30T10:41:53.409Z,27.70
2019-03-30T10:44:26.965Z,33.92
2019-03-30T10:47:00.628Z,31.27
2019-03-30T10:49:34.290Z,28.87
2019-03-30T10:52:07.868Z,35.20
2019-03-30T10:54:51.974Z,32.63
2019-03-30T10:57:16.867Z,31.70
2019-03-30T10:59:50.850Z,32.08
2019-03-30T11:02:25.249Z,30.48
2019-03-30T11:07:54.614Z,31.20
2019-03-30T11:10:28.766Z,31.25
2019-03-30T11:13:03.200Z,33.38
2019-03-30T11:15:37.278Z,29.32
2019-03-30T11:18:11.273Z,31.68
2019-03-30T11:20:45.232Z,32.25
2019-03-30T11:23:19.098Z,34.38
2019-03-30T11:25:53.310Z,31.52
2019-03-30T11:28:27.175Z,33.02
2019-03-30T11:31:01.147Z,33.98
2019-03-30T11:33:35.252Z,31.15
2019-03-30T11:36:09.246Z,32.83
2019-03-30T11:38:43.263Z,32.42
2019-03-30T11:41:17.278Z,32.73
2019-03-30T11:43:51.323Z,32.70
2019-03-30T11:46:25.265Z,30.52
2019-03-30T11:48:59.645Z,32.00
2019-03-30T11:51:33.595Z,33.92
2019-03-30T11:54:07.760Z,34.23
2019-03-30T11:56:41.659Z,32.30
2019-03-30T11:59:15.545Z,34.30
2019-03-30T12:01:49.509Z,31.30
2019-03-30T12:04:26.019Z,29.80
2019-03-30T12:06:59.970Z,32.53
2019-03-30T12:09:33.999Z,31.57
2019-03-30T12:12:07.966Z,29.98
2019-03-30T12:14:41.920Z,31.52
2019-03-30T12:17:16.955Z,31.45
2019-03-30T12:19:51.643Z,35.00
2019-03-30T12:22:48.948Z,29.55
2019-03-30T12:25:34.894Z,34.13
2019-03-30T12:27:58.240Z,31.35
2019-03-30T12:30:32.046Z,27.80
2019-03-30T12:33:05.962Z,29.23
2019-03-30T12:35:42.027Z,31.50
2019-03-30T12:38:16.440Z,33.88
2019-03-30T12:40:51.119Z,34.03
2019-03-30T12:43:24.748Z,31.70
2019-03-30T12:45:58.491Z,34.00
2019-03-30T12:48:32.196Z,28.67
2019-03-30T12:51:05.924Z,33.35
2019-03-30T12:53:49.950Z,30.10
2019-03-30T12:56:16.211Z,36.00
2019-03-30T12:58:50.057Z,32.93
2019-03-30T13:01:23.966Z,32.58
2019-03-30T13:03:58.871Z,34.23
2019-03-30T13:06:32.846Z,31.48
2019-03-30T13:09:09.055Z,32.30
2019-03-30T13:11:42.921Z,32.67
2019-03-30T13:14:16.828Z,30.77
2019-03-30T13:16:50.929Z,35.55
2019-03-30T13:19:25.836Z,30.97
2019-03-30T13:22:00.788Z,36.40
2019-03-30T13:24:34.785Z,31.95
2019-03-30T13:27:08.850Z,36.50
2019-03-30T13:29:42.934Z,33.58
2019-03-30T13:32:18.457Z,34.45
2019-03-30T13:34:53.970Z,33.10
2019-03-30T13:37:27.760Z,37.03
2019-03-30T13:40:01.655Z,30.75
2019-03-30T13:42:35.609Z,34.00
2019-03-30T13:45:09.598Z,34.25
2019-03-30T13:47:43.429Z,36.60
2019-03-30T13:50:17.247Z,37.17
2019-03-30T13:52:51.098Z,34.75
2019-03-30T13:55:24.907Z,33.67
2019-03-30T13:57:58.914Z,34.85
2019-03-30T14:00:32.811Z,34.75
2019-03-30T14:03:06.720Z,37.08
2019-03-30T14:05:41.592Z,35.83
2019-03-30T14:08:15.577Z,34.25
2019-03-30T14:10:49.492Z,32.40
2019-03-30T14:13:24.460Z,33.58
2019-03-30T14:15:59.370Z,33.83
2019-03-30T14:18:33.403Z,28.65
2019-03-30T14:21:07.200Z,30.45
2019-03-30T14:23:43.442Z,28.02
2019-03-30T14:26:30.211Z,30.30
2019-03-30T14:28:51.693Z,28.60
2019-03-30T14:31:25.349Z,31.02
2019-03-30T14:33:59.728Z,30.23
2019-03-30T14:36:34.301Z,28.02
2019-03-30T14:39:09.159Z,30.17
2019-03-30T14:41:42.977Z,28.40
2019-03-30T14:44:17.223Z,28.32
2019-03-30T14:46:51.154Z,27.50
2019-03-30T14:49:25.289Z,28.57
2019-03-30T14:51:59.059Z,27.60
2019-03-30T14:54:32.989Z,26.33
2019-03-30T14:57:06.915Z,24.25
2019-03-30T14:59:40.825Z,23.98
2019-03-30T15:02:14.657Z,27.95
2019-03-30T15:04:48.568Z,26.77
2019-03-30T15:07:23.217Z,30.15
2019-03-30T15:09:57.176Z,27.30
2019-03-30T15:12:30.990Z,25.43
2019-03-30T15:15:05.045Z,26.27
2019-03-30T15:17:40.818Z,24.07
2019-03-30T15:20:16.209Z,26.05
2019-03-30T15:22:50.924Z,24.00
2019-03-30T15:25:24.684Z,26.87
2019-03-30T15:27:59.587Z,28.73
2019-03-30T15:30:33.927Z,25.15
2019-03-30T15:33:20.210Z,47.48
2019-03-30T15:35:53.896Z,113.45
2019-03-30T15:38:28.776Z,73.47
2019-03-30T15:41:02.947Z,39.48
2019-03-30T15:43:38.661Z,28.35
2019-03-30T15:46:14.235Z,33.10
2019-03-30T15:48:48.181Z,30.02
2019-03-30T15:51:22.035Z,32.50
2019-03-30T15:53:56.852Z,24.80
2019-03-30T15:56:31.951Z,26.12
2019-03-30T15:59:06.010Z,39.27
2019-03-30T16:01:39.897Z,31.37
2019-03-30T16:04:13.802Z,29.45
2019-03-30T16:06:47.543Z,25.40
2019-03-30T16:09:21.291Z,22.35
2019-03-30T16:11:54.974Z,26.57
2019-03-30T16:14:28.849Z,23.80
2019-03-30T16:17:02.620Z,23.27
2019-03-30T16:19:36.382Z,27.20
2019-03-30T16:22:10.187Z,30.30
2019-03-30T16:24:44.051Z,25.32
2019-03-30T16:27:28.209Z,26.65
2019-03-30T16:29:53.205Z,22.40
2019-03-30T16:32:26.927Z,24.85
2019-03-30T16:35:00.627Z,30.23
2019-03-30T16:37:35.428Z,24.77
2019-03-30T16:40:09.070Z,24.50
2019-03-30T16:42:43.996Z,29.67
2019-03-30T16:45:18.736Z,28.77
2019-03-30T16:47:52.533Z,38.78
2019-03-30T16:50:26.491Z,33.50
2019-03-30T16:53:00.501Z,38.98
2019-03-30T16:55:34.402Z,56.00
2019-03-30T16:58:08.856Z,66.75
2019-03-30T17:00:56.285Z,94.17
2019-03-30T17:03:24.244Z,147.13
2019-03-30T17:05:58.432Z,127.82
2019-03-30T17:08:32.347Z,135.28
2019-03-30T17:11:06.589Z,121.02
2019-03-30T17:13:46.644Z,106.52
2019-03-30T17:16:20.677Z,147.72
2019-03-30T17:18:54.501Z,140.07
2019-03-30T17:21:28.168Z,113.88
2019-03-30T17:24:15.872Z,105.80
2019-03-30T17:26:49.782Z,94.28
2019-03-30T17:29:23.616Z,59.60
2019-03-30T17:31:57.415Z,50.80
2019-03-30T17:34:31.233Z,73.28
2019-03-30T17:37:05.326Z,171.72
2019-03-30T17:39:40.311Z,171.43
2019-03-30T17:42:14.098Z,131.65
2019-03-30T17:44:47.960Z,96.10
2019-03-30T17:47:21.701Z,87.22
2019-03-30T17:50:12.758Z,109.00
2019-03-30T17:52:46.909Z,154.07
2019-03-30T17:55:33.008Z,197.30
2019-03-30T17:57:56.448Z,193.55
2019-03-30T18:00:30.287Z,217.87
2019-03-30T18:03:04.110Z,232.80
2019-03-30T18:05:37.817Z,161.92
2019-03-30T18:08:12.383Z,172.68
2019-03-30T18:10:46.123Z,255.72
2019-03-30T18:13:20.208Z,221.30
2019-03-30T18:15:54.169Z,241.53
2019-03-30T18:18:28.002Z,242.25
2019-03-30T18:21:01.780Z,243.37
2019-03-30T18:23:35.583Z,183.55
2019-03-30T18:26:09.478Z,137.97
2019-03-30T18:28:43.289Z,107.85
2019-03-30T18:31:17.227Z,146.55
2019-03-30T18:33:51.002Z,155.00
2019-03-30T18:36:33.530Z,174.77
2019-03-30T18:39:13.048Z,207.98
2019-03-30T18:41:47.445Z,213.60
2019-03-30T18:44:21.414Z,203.58
2019-03-30T18:46:55.265Z,212.48
2019-03-30T18:49:31.122Z,215.10
2019-03-30T18:52:08.583Z,240.60
2019-03-30T18:54:43.151Z,257.90
2019-03-30T18:57:17.122Z,233.63
2019-03-30T18:59:51.008Z,224.55
2019-03-30T19:02:24.941Z,219.87
2019-03-30T19:04:58.909Z,202.65
2019-03-30T19:07:33.851Z,188.07
2019-03-30T19:10:08.236Z,185.57
2019-03-30T19:12:45.065Z,161.12
2019-03-30T19:15:23.045Z,151.10
2019-03-30T19:17:57.198Z,160.12
2019-03-30T19:20:31.144Z,185.95
2019-03-30T19:23:05.046Z,196.93
2019-03-30T19:25:38.870Z,198.82
2019-03-30T19:28:14.227Z,199.30
2019-03-30T19:30:48.156Z,158.68
2019-03-30T19:33:22.359Z,188.95
2019-03-30T19:35:58.951Z,188.87
2019-03-30T19:38:34.013Z,160.65
2019-03-30T19:41:07.933Z,182.60
2019-03-30T19:43:41.745Z,177.68
2019-03-30T19:46:16.830Z,162.00
2019-03-30T19:48:50.770Z,130.25
2019-03-30T19:51:24.598Z,105.30
2019-03-30T19:54:00.143Z,96.57
2019-03-30T19:56:34.752Z,112.30
2019-03-30T19:59:11.027Z,104.00
2019-03-30T20:01:44.923Z,103.95
2019-03-30T20:04:19.463Z,91.70
2019-03-30T20:06:53.386Z,101.50
2019-03-30T20:09:27.195Z,113.95
2019-03-30T20:12:02.850Z,103.97
2019-03-30T20:14:36.736Z,100.53
2019-03-30T20:17:11.011Z,107.87
2019-03-30T20:19:44.806Z,96.72
2019-03-30T20:22:18.703Z,100.15
2019-03-30T20:24:55.653Z,109.30
2019-03-30T20:27:29.543Z,109.05
2019-03-30T20:30:03.896Z,94.77
2019-03-30T20:32:38.267Z,94.62
2019-03-30T20:35:12.347Z,120.22
2019-03-30T20:37:46.506Z,128.20
2019-03-30T20:40:20.931Z,112.80
2019-03-30T20:42:55.104Z,130.22
2019-03-30T20:45:29.352Z,124.33
2019-03-30T20:48:04.101Z,125.40
2019-03-30T20:50:38.467Z,115.17
2019-03-30T20:53:12.952Z,100.35
2019-03-30T20:55:47.520Z,79.82
2019-03-30T20:58:21.588Z,79.75
2019-03-30T21:00:55.572Z,77.58
2019-03-30T21:03:29.936Z,83.90
2019-03-30T21:06:04.480Z,95.95
2019-03-30T21:08:38.515Z,95.87
2019-03-30T21:11:12.757Z,95.65
2019-03-30T21:13:46.785Z,101.50
2019-03-30T21:16:21.009Z,108.10
2019-03-30T21:18:54.912Z,104.05
2019-03-30T21:21:29.265Z,104.53
2019-03-30T21:24:03.356Z,101.20
2019-03-30T21:26:38.415Z,99.87
2019-03-30T21:29:12.534Z,97.20
2019-03-30T21:31:49.277Z,107.83
2019-03-30T21:34:22.106Z,102.62
2019-03-30T21:36:56.054Z,96.67
2019-03-30T21:39:29.987Z,102.67
2019-03-30T21:42:04.055Z,99.70
2019-03-30T21:44:37.816Z,98.92
2019-03-30T21:47:11.552Z,95.47
2019-03-30T21:49:45.197Z,100.22
2019-03-30T21:52:18.898Z,97.90
2019-03-30T21:54:52.541Z,108.50
2019-03-30T21:57:26.227Z,105.05
2019-03-30T22:00:09.918Z,104.85
2019-03-30T22:02:36.892Z,105.03
2019-03-30T22:05:10.633Z,99.15
2019-03-30T22:07:44.438Z,101.97
2019-03-30T22:10:27.814Z,98.35
2019-03-30T22:13:01.521Z,110.15
2019-03-30T22:15:35.161Z,107.72
2019-03-30T22:18:08.776Z,125.25
2019-03-30T22:20:42.421Z,126.95
2019-03-30T22:23:16.097Z,168.62
2019-03-30T22:25:49.750Z,211.00
2019-03-30T22:28:24.524Z,265.75
2019-03-30T22:30:58.110Z,347.25
2019-03-30T22:33:31.717Z,373.43
2019-03-30T22:36:05.367Z,361.45
2019-03-30T22:38:39.103Z,391.38
2019-03-30T22:41:12.753Z,288.70
2019-03-30T22:43:46.390Z,261.30
2019-03-30T22:46:20.311Z,243.22
2019-03-30T22:48:53.930Z,224.45
2019-03-30T22:51:27.575Z,202.40
2019-03-30T22:54:01.197Z,180.22
2019-03-30T22:56:34.840Z,151.18
2019-03-30T22:59:08.519Z,164.62
2019-03-30T23:01:42.093Z,147.82
2019-03-30T23:04:15.896Z,151.15
2019-03-30T23:06:49.555Z,153.23
2019-03-30T23:09:23.216Z,147.62
2019-03-30T23:11:56.787Z,152.53
2019-03-30T23:14:30.421Z,150.15
2019-03-30T23:17:04.163Z,155.43
2019-03-30T23:19:37.938Z,132.63
2019-03-30T23:22:11.617Z,137.77
2019-03-30T23:24:45.291Z,118.87
2019-03-30T23:27:18.973Z,124.12
2019-03-30T23:29:52.769Z,120.30
2019-03-30T23:32:26.577Z,112.52
2019-03-30T23:35:00.767Z,108.57
2019-03-30T23:37:34.585Z,99.07
2019-03-30T23:40:08.832Z,114.50
2019-03-30T23:42:42.754Z,110.75
2019-03-30T23:45:17.454Z,114.88
2019-03-30T23:47:51.403Z,114.55
2019-03-30T23:50:25.252Z,105.78
2019-03-30T23:52:59.102Z,103.78
2019-03-30T23:55:33.078Z,105.37
2019-03-30T23:58:06.979Z,101.90
